Terminal Aerodrome Forecast
Issued by NWS Sterling, VA

Current Version | Previous Version | Text Only | Print | Product List | Glossary On
Versions: 1 2 3 4 5 6 7 8 9 10 11 12 13 14 15 16 17 18 19 20 21 22 23 24 25 26 27 28 29 30
000
FTUS41 KLWX 212341
TAFIAD
TAF
KIAD 212341Z 2200/2306 36008KT 5SM -DZ BR BKN006 OVC035
     FM221200 35006KT 3SM BR OVC030
     FM221600 34008KT 4SM -SHRA SCT012 OVC040
     FM222200 33007KT P6SM OVC070=

USA.gov is the U.S. government's official web portal to all federal, state and local government web resources and services.